Time;durP1;ratioP1;P1;durP2;ratioP2;P2;SDS_P1;SDS_P2;PMS_P1;PMS_P2;Temp;Humidity;BMP_temperature;BMP_pressure;BME280_temperature;BME280_humidity;BME280_pressure;Samples;Min_cycle;Max_cycle;Signal;HPM_P1;HPM_P2
2021/09/26 00:01:29;;;;;;;13.57;12.07;;;18.70;99.90;;;;;;5073728;28;20359;-79
2021/09/26 00:03:56;;;;;;;11.60;10.60;;;18.70;99.90;;;;;;5088441;28;20020;-80
2021/09/26 00:06:22;;;;;;;12.48;11.38;;;18.70;99.90;;;;;;5065540;28;20021;-79
2021/09/26 00:08:48;;;;;;;13.52;12.27;;;18.70;99.90;;;;;;5055519;28;20021;-79
2021/09/26 00:11:14;;;;;;;14.98;13.43;;;18.60;99.90;;;;;;5077384;28;20032;-79
2021/09/26 00:13:41;;;;;;;13.07;11.98;;;18.50;99.90;;;;;;5063140;28;20059;-79
2021/09/26 00:16:08;;;;;;;12.82;11.73;;;18.50;99.90;;;;;;5053879;28;20192;-79
2021/09/26 00:18:35;;;;;;;13.20;12.10;;;18.50;99.90;;;;;;5062863;28;20038;-79
2021/09/26 00:21:02;;;;;;;13.93;12.73;;;18.40;99.90;;;;;;5050923;28;20043;-79
2021/09/26 00:23:31;;;;;;;17.15;12.40;;;18.40;99.90;;;;;;5065783;28;20350;-79
2021/09/26 00:25:57;;;;;;;12.65;11.45;;;18.50;99.90;;;;;;5041744;28;20020;-79
2021/09/26 00:28:23;;;;;;;13.65;12.65;;;18.40;99.90;;;;;;5050280;28;20025;-79
2021/09/26 00:30:50;;;;;;;16.73;10.68;;;18.40;99.90;;;;;;5069584;28;20051;-79
2021/09/26 00:33:17;;;;;;;12.40;11.30;;;18.40;99.90;;;;;;5061272;28;20028;-79
2021/09/26 00:35:43;;;;;;;13.70;11.65;;;18.40;99.90;;;;;;5060318;28;20033;-79
2021/09/26 00:38:10;;;;;;;13.35;12.10;;;18.40;99.90;;;;;;5067627;28;20035;-79
2021/09/26 00:40:36;;;;;;;12.55;11.55;;;18.40;99.90;;;;;;5060655;28;20056;-78
2021/09/26 00:43:07;;;;;;;14.05;12.77;;;18.50;99.90;;;;;;5051705;28;20021;-78
2021/09/26 00:45:33;;;;;;;12.73;11.43;;;18.50;99.90;;;;;;5056353;28;20028;-78
2021/09/26 00:47:59;;;;;;;12.80;11.77;;;18.40;99.90;;;;;;5057111;28;20020;-79
2021/09/26 00:50:31;;;;;;;13.73;12.52;;;18.40;99.90;;;;;;5035245;28;20755;-78
2021/09/26 00:56:16;;;;;;;14.15;12.95;;;18.40;99.90;;;;;;5071466;28;20055;-79
2021/09/26 00:58:52;;;;;;;12.40;11.40;;;18.30;99.90;;;;;;5043294;28;20033;-78
2021/09/26 01:01:18;;;;;;;14.13;12.98;;;18.30;99.90;;;;;;5057514;28;20526;-78
2021/09/26 01:03:44;;;;;;;14.35;13.20;;;18.30;99.90;;;;;;5070881;28;20024;-79
2021/09/26 01:06:29;;;;;;;18.77;13.88;;;18.20;99.90;;;;;;5054143;28;20024;-79
2021/09/26 01:09:12;;;;;;;14.23;13.02;;;18.20;99.90;;;;;;5056548;28;20126;-79
2021/09/26 01:12:11;;;;;;;14.70;13.05;;;18.20;99.90;;;;;;5048746;28;20026;-79
2021/09/26 01:14:49;;;;;;;14.82;13.30;;;18.10;99.90;;;;;;5039118;28;20040;-79
2021/09/26 01:17:44;;;;;;;15.07;13.52;;;18.20;99.90;;;;;;5063607;28;20136;-79
2021/09/26 01:20:40;;;;;;;13.63;12.52;;;18.20;99.90;;;;;;5066949;28;20111;-79
2021/09/26 01:23:15;;;;;;;14.95;12.27;;;18.20;99.90;;;;;;5059921;28;20028;-79
2021/09/26 01:25:57;;;;;;;14.18;12.90;;;18.20;99.90;;;;;;5061376;28;20021;-79
2021/09/26 01:29:03;;;;;;;13.98;12.68;;;18.10;99.90;;;;;;5077296;28;20029;-79
2021/09/26 01:31:34;;;;;;;16.02;13.10;;;18.20;99.90;;;;;;5079561;28;20040;-79
2021/09/26 01:34:08;;;;;;;14.32;13.13;;;18.10;99.90;;;;;;5074841;28;20020;-79
2021/09/26 01:36:40;;;;;;;13.93;12.43;;;18.10;99.90;;;;;;5053690;28;20037;-79
2021/09/26 01:39:13;;;;;;;16.08;14.43;;;18.20;99.90;;;;;;5065702;28;20040;-79
2021/09/26 01:42:29;;;;;;;14.70;13.50;;;18.20;99.90;;;;;;5078234;28;20457;-79
2021/09/26 01:45:04;;;;;;;14.05;12.60;;;18.20;99.90;;;;;;5062782;28;20047;-79
2021/09/26 01:47:36;;;;;;;16.67;14.68;;;18.20;99.90;;;;;;5058576;28;20025;-79
2021/09/26 01:50:05;;;;;;;;;;;18.20;99.90;;;;;;5074124;28;20228;-79
2021/09/26 01:52:33;;;;;;;13.18;11.85;;;18.20;99.90;;;;;;5067305;28;19931;-79
2021/09/26 01:55:01;;;;;;;14.63;13.23;;;18.20;99.90;;;;;;5080870;28;20487;-79
2021/09/26 01:57:30;;;;;;;18.65;13.77;;;18.20;99.90;;;;;;5083325;28;20138;-79
2021/09/26 01:59:59;;;;;;;14.85;13.65;;;18.20;99.90;;;;;;5071812;28;20032;-79
2021/09/26 02:02:27;;;;;;;15.77;13.55;;;18.20;99.90;;;;;;5076312;28;20052;-79
2021/09/26 02:05:01;;;;;;;15.75;12.65;;;18.20;99.90;;;;;;5065889;28;20028;-79
2021/09/26 02:07:33;;;;;;;15.45;13.18;;;18.30;99.90;;;;;;5058177;28;20025;-79
2021/09/26 02:10:03;;;;;;;13.88;12.48;;;18.30;99.90;;;;;;5072018;28;20029;-79
2021/09/26 02:12:35;;;;;;;12.90;11.80;;;18.30;99.90;;;;;;5079955;28;20051;-79
2021/09/26 02:15:05;;;;;;;13.47;11.90;;;18.30;99.90;;;;;;5069232;28;20116;-79
2021/09/26 02:17:31;;;;;;;14.07;12.60;;;18.30;99.90;;;;;;5084895;28;20275;-79
2021/09/26 02:20:01;;;;;;;15.23;13.77;;;18.40;99.90;;;;;;5079240;28;20112;-79
2021/09/26 02:22:33;;;;;;;13.05;11.95;;;18.40;99.90;;;;;;5086048;28;20031;-79
2021/09/26 02:25:03;;;;;;;15.13;11.95;;;18.50;99.90;;;;;;5083671;28;20013;-79
2021/09/26 02:27:30;;;;;;;12.35;11.18;;;18.50;99.90;;;;;;5081305;28;20012;-79
2021/09/26 02:29:56;;;;;;;15.55;12.55;;;18.50;99.90;;;;;;5085700;28;20029;-79
2021/09/26 02:32:23;;;;;;;12.70;11.55;;;18.60;99.90;;;;;;5080227;28;20399;-79
2021/09/26 02:34:49;;;;;;;13.93;12.70;;;18.60;99.90;;;;;;5064572;28;20032;-79
2021/09/26 02:37:16;;;;;;;14.30;13.00;;;18.50;99.90;;;;;;5066191;28;20024;-79
2021/09/26 02:39:43;;;;;;;13.32;11.98;;;18.60;99.90;;;;;;5083786;28;20020;-79
2021/09/26 02:42:15;;;;;;;13.15;12.02;;;18.70;99.90;;;;;;5080922;28;20032;-79
2021/09/26 02:44:56;;;;;;;13.80;12.57;;;18.70;99.90;;;;;;5071743;28;20038;-79
2021/09/26 02:47:25;;;;;;;14.55;12.73;;;18.60;99.90;;;;;;5087752;28;20028;-79
2021/09/26 02:49:53;;;;;;;16.45;13.90;;;18.60;99.90;;;;;;5079212;28;20033;-79
2021/09/26 02:52:30;;;;;;;13.98;12.77;;;18.60;99.90;;;;;;5057104;28;20052;-79
2021/09/26 02:54:57;;;;;;;12.00;11.00;;;18.60;99.90;;;;;;5068419;28;20050;-79
2021/09/26 02:57:23;;;;;;;13.43;12.15;;;18.60;99.90;;;;;;5081144;28;20035;-79
2021/09/26 02:59:50;;;;;;;11.98;11.07;;;18.70;99.90;;;;;;5083832;28;20025;-79
2021/09/26 03:02:16;;;;;;;13.32;12.00;;;18.70;99.90;;;;;;5074889;28;20021;-79
2021/09/26 03:04:46;;;;;;;14.85;13.50;;;18.70;99.90;;;;;;5078854;28;20025;-79
2021/09/26 03:07:19;;;;;;;13.15;12.05;;;18.70;99.90;;;;;;5075483;28;20075;-79
2021/09/26 03:09:44;;;;;;;13.82;12.57;;;18.60;99.90;;;;;;5079950;28;20032;-79
2021/09/26 03:12:15;;;;;;;13.05;11.80;;;18.60;99.90;;;;;;5068577;28;20047;-79
2021/09/26 03:14:42;;;;;;;14.45;12.93;;;18.70;99.90;;;;;;5061928;28;20048;-79
2021/09/26 03:17:08;;;;;;;13.38;12.00;;;18.60;99.90;;;;;;5072296;28;20056;-79
2021/09/26 03:19:34;;;;;;;13.13;12.02;;;18.60;99.90;;;;;;5082209;28;20116;-79
2021/09/26 03:22:01;;;;;;;14.95;12.90;;;18.60;99.90;;;;;;5080785;28;20049;-79
2021/09/26 03:24:28;;;;;;;13.75;12.55;;;18.80;99.90;;;;;;5083000;28;20117;-79
2021/09/26 03:26:55;;;;;;;13.23;12.13;;;18.80;99.90;;;;;;5087453;28;21015;-79
2021/09/26 03:29:21;;;;;;;14.30;13.13;;;18.80;99.90;;;;;;5086495;28;20062;-78
2021/09/26 03:31:47;;;;;;;12.75;11.27;;;18.80;99.90;;;;;;5088917;28;20032;-79
2021/09/26 03:34:13;;;;;;;12.80;11.60;;;18.80;99.90;;;;;;5085170;28;20020;-78
2021/09/26 03:36:39;;;;;;;16.05;12.30;;;18.70;99.90;;;;;;5084943;28;20033;-79
2021/09/26 03:39:05;;;;;;;12.50;11.55;;;18.70;99.90;;;;;;5092393;28;20023;-78
2021/09/26 03:41:34;;;;;;;15.55;12.77;;;18.70;99.90;;;;;;5087136;28;20016;-79
2021/09/26 03:44:00;;;;;;;13.30;12.18;;;18.80;99.90;;;;;;5083084;28;20017;-79
2021/09/26 03:46:29;;;;;;;11.32;10.40;;;18.80;99.90;;;;;;5083073;28;20073;-79
2021/09/26 03:48:55;;;;;;;15.80;11.40;;;18.90;99.90;;;;;;5073452;28;20033;-79
2021/09/26 03:51:21;;;;;;;13.30;11.13;;;18.90;99.90;;;;;;5079601;28;20084;-79
2021/09/26 03:53:47;;;;;;;12.63;11.52;;;18.90;99.90;;;;;;5069067;28;20028;-79
2021/09/26 03:56:16;;;;;;;13.27;11.35;;;18.90;99.90;;;;;;5080388;28;20036;-79
2021/09/26 03:58:42;;;;;;;15.77;12.02;;;18.90;99.90;;;;;;5081607;28;20498;-79
2021/09/26 04:01:08;;;;;;;13.98;12.50;;;18.80;99.90;;;;;;5082823;28;20024;-79
2021/09/26 04:03:37;;;;;;;14.52;13.00;;;18.80;99.90;;;;;;5082755;28;20040;-79
2021/09/26 04:06:09;;;;;;;13.82;12.48;;;18.90;99.90;;;;;;5083498;28;20028;-79
2021/09/26 04:08:40;;;;;;;12.98;11.77;;;19.00;99.90;;;;;;5080404;28;20025;-78
2021/09/26 04:11:07;;;;;;;13.02;11.93;;;19.00;99.90;;;;;;5082902;28;20033;-79
2021/09/26 04:13:33;;;;;;;14.32;12.20;;;19.00;99.90;;;;;;5068451;28;20634;-79
2021/09/26 04:15:59;;;;;;;13.60;11.75;;;19.00;99.90;;;;;;5078074;28;20371;-79
2021/09/26 04:18:26;;;;;;;13.05;11.63;;;19.00;99.90;;;;;;5064686;28;20449;-79
2021/09/26 04:20:52;;;;;;;13.18;12.05;;;19.20;99.90;;;;;;5074221;28;20028;-79
2021/09/26 04:23:18;;;;;;;12.55;11.43;;;19.30;99.90;;;;;;5095439;28;20016;-79
2021/09/26 04:25:44;;;;;;;12.60;11.60;;;19.30;99.90;;;;;;5075553;28;20074;-79
2021/09/26 04:28:10;;;;;;;12.88;11.68;;;19.20;99.90;;;;;;5074614;28;20023;-79
2021/09/26 04:30:36;;;;;;;13.05;11.88;;;19.30;99.90;;;;;;5068799;28;20091;-79
2021/09/26 04:33:04;;;;;;;12.18;11.07;;;19.30;99.90;;;;;;5096206;28;20080;-79
2021/09/26 04:35:30;;;;;;;13.23;11.90;;;19.30;99.90;;;;;;5096362;28;20052;-79
2021/09/26 04:38:12;;;;;;;17.95;11.93;;;19.30;99.90;;;;;;5082212;28;20089;-79
2021/09/26 04:40:40;;;;;;;;;;;19.30;99.90;;;;;;5057710;28;20025;-79
2021/09/26 04:43:06;;;;;;;16.15;11.57;;;19.30;99.90;;;;;;5082153;28;19937;-78
2021/09/26 04:45:32;;;;;;;13.70;12.50;;;19.40;99.90;;;;;;5058391;28;20035;-79
2021/09/26 04:47:58;;;;;;;13.45;12.15;;;19.40;99.90;;;;;;5078689;28;20025;-78
2021/09/26 04:50:24;;;;;;;11.35;10.50;;;19.40;99.90;;;;;;5088338;28;20042;-79
2021/09/26 04:52:50;;;;;;;12.73;11.63;;;19.50;99.90;;;;;;5071111;28;20059;-78
2021/09/26 04:55:17;;;;;;;13.57;11.80;;;19.40;99.90;;;;;;5072441;28;20095;-78
2021/09/26 04:57:44;;;;;;;13.40;11.30;;;19.50;99.90;;;;;;5079109;28;20028;-79
2021/09/26 05:00:10;;;;;;;13.07;11.63;;;19.40;99.90;;;;;;5076540;28;20064;-78
2021/09/26 05:02:36;;;;;;;13.32;11.57;;;19.40;99.90;;;;;;5079811;28;20024;-78
2021/09/26 05:05:08;;;;;;;12.80;11.73;;;19.50;99.90;;;;;;5079956;28;20086;-78
2021/09/26 05:07:34;;;;;;;16.60;12.40;;;19.30;99.90;;;;;;5095574;28;20625;-78
2021/09/26 05:10:00;;;;;;;12.30;11.25;;;19.30;99.90;;;;;;5084810;28;20076;-78
2021/09/26 05:12:26;;;;;;;13.23;11.30;;;19.40;99.90;;;;;;5090883;28;20393;-78
2021/09/26 05:15:04;;;;;;;15.88;12.38;;;19.40;99.90;;;;;;5081107;28;20059;-78
2021/09/26 05:17:34;;;;;;;14.40;12.93;;;19.40;99.90;;;;;;5084335;28;20024;-78
2021/09/26 05:20:00;;;;;;;13.35;11.98;;;19.40;99.90;;;;;;5078405;28;20021;-78
2021/09/26 05:22:27;;;;;;;12.25;11.25;;;19.40;99.90;;;;;;5090854;28;20032;-78
2021/09/26 05:24:55;;;;;;;13.07;11.75;;;19.30;99.90;;;;;;5074440;28;20080;-78
2021/09/26 05:27:23;;;;;;;13.55;12.40;;;19.40;99.90;;;;;;5093452;28;20024;-78
2021/09/26 05:29:49;;;;;;;13.35;12.05;;;19.30;99.90;;;;;;5096296;28;20575;-78
2021/09/26 05:32:15;;;;;;;13.98;12.48;;;19.30;99.90;;;;;;5068639;28;20032;-78
2021/09/26 05:34:41;;;;;;;18.52;13.07;;;19.30;99.90;;;;;;5077105;28;20070;-78
2021/09/26 05:37:07;;;;;;;12.07;10.98;;;19.30;99.90;;;;;;5098343;28;20036;-78
2021/09/26 05:39:33;;;;;;;15.23;13.63;;;19.30;99.90;;;;;;5078735;28;20053;-78
2021/09/26 05:42:03;;;;;;;13.38;12.30;;;19.40;99.90;;;;;;5091719;28;20028;-78
2021/09/26 05:44:35;;;;;;;13.00;11.90;;;19.40;99.90;;;;;;5083506;28;20094;-78
2021/09/26 05:47:02;;;;;;;13.07;11.90;;;19.40;99.90;;;;;;5072661;28;20044;-78
2021/09/26 05:49:28;;;;;;;14.05;12.20;;;19.50;99.90;;;;;;5087934;28;20020;-79
2021/09/26 05:51:57;;;;;;;11.82;10.85;;;19.40;99.90;;;;;;5085677;28;20047;-78
2021/09/26 05:54:23;;;;;;;13.52;12.40;;;19.50;99.90;;;;;;5096373;28;20091;-78
2021/09/26 05:56:49;;;;;;;14.20;12.82;;;19.60;99.90;;;;;;5105005;28;20024;-78
2021/09/26 05:59:18;;;;;;;13.75;12.55;;;19.60;99.90;;;;;;5068767;28;20028;-78
2021/09/26 06:01:44;;;;;;;12.57;10.63;;;19.70;99.90;;;;;;5088637;28;20097;-78
2021/09/26 06:04:10;;;;;;;15.35;12.82;;;19.80;99.90;;;;;;5069956;28;20031;-78
2021/09/26 06:06:36;;;;;;;13.93;11.15;;;19.80;99.90;;;;;;5092915;28;20096;-78
2021/09/26 06:09:02;;;;;;;13.23;12.05;;;19.80;99.90;;;;;;5066638;28;20024;-78
2021/09/26 06:11:28;;;;;;;13.52;12.32;;;19.70;99.90;;;;;;5080509;28;20028;-78
2021/09/26 06:14:06;;;;;;;13.07;11.88;;;19.80;99.90;;;;;;5088318;28;20046;-78
2021/09/26 06:16:32;;;;;;;15.07;12.02;;;19.70;99.90;;;;;;5086689;28;20070;-78
2021/09/26 06:18:58;;;;;;;13.23;12.10;;;19.80;99.90;;;;;;5077348;28;20028;-79
2021/09/26 06:21:24;;;;;;;12.05;10.88;;;19.90;99.90;;;;;;5076212;28;20032;-79
2021/09/26 06:23:50;;;;;;;13.90;11.45;;;19.90;99.90;;;;;;5080813;28;20074;-79
2021/09/26 06:26:16;;;;;;;12.25;11.13;;;20.00;99.90;;;;;;5078879;28;20028;-79
2021/09/26 06:28:44;;;;;;;11.90;10.95;;;20.10;99.90;;;;;;5093381;28;20027;-79
2021/09/26 06:31:10;;;;;;;11.38;10.32;;;20.10;99.90;;;;;;5096524;28;20028;-79
2021/09/26 06:33:41;;;;;;;12.80;11.18;;;20.20;99.90;;;;;;5095387;28;20028;-79
2021/09/26 06:36:07;;;;;;;11.65;9.88;;;20.20;99.90;;;;;;5091142;28;20048;-79
2021/09/26 06:38:33;;;;;;;16.30;11.10;;;20.30;99.90;;;;;;5086284;28;20029;-79
2021/09/26 06:40:59;;;;;;;12.52;11.30;;;20.30;99.90;;;;;;5091623;28;20021;-78
2021/09/26 06:43:25;;;;;;;16.15;11.90;;;20.40;99.90;;;;;;5094406;28;20035;-79
2021/09/26 06:45:51;;;;;;;13.02;11.75;;;20.50;99.90;;;;;;5100081;28;20092;-79
2021/09/26 06:48:17;;;;;;;16.40;11.15;;;20.60;99.90;;;;;;5096912;28;20028;-79
2021/09/26 06:50:43;;;;;;;12.25;10.75;;;20.70;99.90;;;;;;5104365;28;20574;-79
2021/09/26 06:53:08;;;;;;;13.15;10.40;;;20.90;99.90;;;;;;5084356;28;20040;-79
2021/09/26 06:55:34;;;;;;;12.23;10.00;;;21.00;99.90;;;;;;5087336;28;20493;-79
2021/09/26 06:58:00;;;;;;;11.95;10.75;;;21.20;99.90;;;;;;5084955;28;20055;-79
2021/09/26 07:00:26;;;;;;;16.80;12.10;;;21.30;99.90;;;;;;5071501;28;20039;-79
2021/09/26 07:02:52;;;;;;;12.20;11.02;;;21.50;99.90;;;;;;5085774;28;20009;-79
2021/09/26 07:05:19;;;;;;;11.60;10.10;;;21.50;99.90;;;;;;5084055;28;20068;-79
2021/09/26 07:07:46;;;;;;;11.95;10.75;;;21.50;99.90;;;;;;5090073;28;20032;-79
2021/09/26 07:10:21;;;;;;;10.95;9.93;;;21.60;99.90;;;;;;5086154;28;20020;-79
2021/09/26 07:12:55;;;;;;;15.75;12.48;;;21.70;99.90;;;;;;5075109;28;20024;-79
2021/09/26 07:15:20;;;;;;;14.77;13.30;;;21.70;99.90;;;;;;5076435;28;20545;-79
2021/09/26 07:17:46;;;;;;;13.93;11.70;;;21.90;99.90;;;;;;5088537;28;20028;-79
2021/09/26 07:20:12;;;;;;;10.90;10.00;;;22.00;99.90;;;;;;5092030;28;20028;-79
2021/09/26 07:22:40;;;;;;;10.40;9.40;;;22.10;99.90;;;;;;5091807;28;20131;-79
2021/09/26 07:25:07;;;;;;;10.45;9.48;;;22.20;99.90;;;;;;5083101;28;20030;-79
2021/09/26 07:27:33;;;;;;;10.85;9.80;;;22.40;99.90;;;;;;5079578;28;20031;-79
2021/09/26 07:29:59;;;;;;;16.27;11.65;;;22.60;99.90;;;;;;5077884;28;20020;-79
2021/09/26 07:32:25;;;;;;;9.15;8.32;;;22.80;99.90;;;;;;5062809;28;20025;-79
2021/09/26 07:34:51;;;;;;;7.85;7.25;;;23.00;99.90;;;;;;5064114;28;20020;-79
2021/09/26 07:37:18;;;;;;;7.88;7.25;;;23.10;99.90;;;;;;5064256;28;20024;-79
2021/09/26 07:39:44;;;;;;;12.30;8.38;;;23.10;99.90;;;;;;5083863;28;20028;-79
2021/09/26 07:42:10;;;;;;;11.02;9.90;;;23.00;99.90;;;;;;5090007;28;20031;-79
2021/09/26 07:44:39;;;;;;;11.65;7.50;;;23.00;99.90;;;;;;5074211;28;20421;-79
2021/09/26 07:47:05;;;;;;;7.95;7.25;;;23.10;99.90;;;;;;5084569;28;20506;-78
2021/09/26 07:49:34;;;;;;;12.38;11.07;;;23.10;99.90;;;;;;5091604;28;20070;-79
2021/09/26 07:52:01;;;;;;;9.40;8.68;;;23.10;99.90;;;;;;5095540;28;20034;-79
2021/09/26 07:54:27;;;;;;;9.07;7.90;;;23.10;99.90;;;;;;5080667;28;20094;-79
2021/09/26 07:56:53;;;;;;;7.50;6.78;;;23.20;99.90;;;;;;5080657;28;20025;-79
2021/09/26 07:59:21;;;;;;;10.25;7.53;;;23.40;99.90;;;;;;5088260;28;20050;-79
2021/09/26 08:01:53;;;;;;;7.65;6.50;;;23.40;99.90;;;;;;5085426;28;20491;-79
2021/09/26 08:04:19;;;;;;;9.18;7.07;;;23.60;99.90;;;;;;5085093;28;20035;-79
2021/09/26 08:06:44;;;;;;;11.70;6.93;;;23.80;99.90;;;;;;5065873;28;20033;-79
2021/09/26 08:09:10;;;;;;;8.07;6.07;;;23.90;99.90;;;;;;5074523;28;20016;-79
2021/09/26 08:11:37;;;;;;;9.85;7.55;;;24.10;99.90;;;;;;5088172;28;20032;-79
2021/09/26 08:14:03;;;;;;;7.38;6.75;;;24.20;99.90;;;;;;5072406;28;20024;-79
2021/09/26 08:16:29;;;;;;;6.88;6.28;;;24.20;99.90;;;;;;5076848;28;20039;-78
2021/09/26 08:18:55;;;;;;;8.38;5.88;;;24.20;99.90;;;;;;5079801;28;20036;-79
2021/09/26 08:22:10;;;;;;;8.95;6.72;;;24.20;99.90;;;;;;5083374;28;20028;-79
2021/09/26 08:25:00;;;;;;;7.57;6.57;;;24.40;99.90;;;;;;5076661;28;20112;-79
2021/09/26 08:30:43;;;;;;;9.02;6.28;;;24.60;99.90;;;;;;5062837;28;20086;-79
2021/09/26 08:33:09;;;;;;;12.82;7.43;;;24.70;99.90;;;;;;5081688;28;20029;-79
2021/09/26 08:35:35;;;;;;;15.35;7.90;;;24.70;99.90;;;;;;5103744;28;20584;-79
2021/09/26 08:38:02;;;;;;;9.90;6.93;;;24.80;99.90;;;;;;5073300;28;20376;-79
2021/09/26 08:40:28;;;;;;;16.17;7.53;;;24.70;99.90;;;;;;5083334;28;20504;-79
2021/09/26 08:42:54;;;;;;;8.38;7.68;;;24.40;99.90;;;;;;5082041;28;20024;-79
2021/09/26 08:45:21;;;;;;;8.40;6.55;;;24.30;99.90;;;;;;5081763;28;20020;-79
2021/09/26 08:48:11;;;;;;;21.65;7.57;;;24.20;99.90;;;;;;5078237;28;20080;-79
2021/09/26 08:50:41;;;;;;;8.23;6.63;;;24.10;99.90;;;;;;5065281;28;20044;-79
2021/09/26 08:53:12;;;;;;;13.25;8.45;;;23.90;99.90;;;;;;5063724;28;20025;-79
2021/09/26 08:55:38;;;;;;;10.82;7.50;;;23.70;99.90;;;;;;5059545;28;20363;-79
2021/09/26 08:58:29;;;;;;;9.90;8.88;;;23.40;99.90;;;;;;5068420;28;20036;-79
2021/09/26 09:00:55;;;;;;;9.82;8.93;;;23.20;99.90;;;;;;5077521;28;20034;-79
2021/09/26 09:03:23;;;;;;;10.50;8.48;;;23.00;99.90;;;;;;5081363;28;20195;-79
2021/09/26 09:05:58;;;;;;;11.13;8.48;;;23.00;99.90;;;;;;5078389;28;20047;-79
2021/09/26 09:08:41;;;;;;;9.10;7.90;;;23.10;99.90;;;;;;5082990;28;20016;-79
2021/09/26 09:11:12;;;;;;;13.20;8.50;;;23.00;99.90;;;;;;5082248;28;20453;-79
2021/09/26 09:14:17;;;;;;;11.98;8.20;;;23.00;99.90;;;;;;5081857;28;20112;-79
2021/09/26 09:16:54;;;;;;;9.13;7.90;;;22.90;99.90;;;;;;5056614;28;20136;-79
2021/09/26 09:19:27;;;;;;;9.05;7.88;;;22.90;99.90;;;;;;5067888;28;20028;-79
2021/09/26 09:22:07;;;;;;;11.25;8.75;;;22.90;99.90;;;;;;5081035;28;20291;-79
2021/09/26 09:24:40;;;;;;;10.25;8.05;;;22.80;99.90;;;;;;5091694;28;20051;-79
2021/09/26 09:27:07;;;;;;;15.68;9.48;;;22.70;99.90;;;;;;5097049;28;20020;-79
2021/09/26 09:29:37;;;;;;;13.02;9.10;;;22.70;99.90;;;;;;5063775;28;20065;-79
2021/09/26 09:32:18;;;;;;;9.15;8.07;;;22.90;99.90;;;;;;5067809;28;20122;-79
2021/09/26 09:34:51;;;;;;;10.00;8.52;;;22.90;99.90;;;;;;5093007;28;20028;-80
2021/09/26 09:37:21;;;;;;;8.35;7.55;;;22.90;99.90;;;;;;5080216;28;20025;-79
2021/09/26 09:40:09;;;;;;;8.48;7.75;;;22.80;99.90;;;;;;5082489;28;20021;-79
2021/09/26 09:42:45;;;;;;;16.80;9.30;;;22.70;99.90;;;;;;5081431;28;20066;-79
2021/09/26 09:45:18;;;;;;;9.15;8.25;;;22.70;99.90;;;;;;5073246;28;20024;-79
2021/09/26 09:48:15;;;;;;;13.48;11.80;;;22.70;99.90;;;;;;5075901;28;20070;-79
2021/09/26 09:50:52;;;;;;;14.45;8.90;;;22.60;99.90;;;;;;5079033;28;20082;-79
2021/09/26 09:53:25;;;;;;;11.90;7.97;;;22.40;99.90;;;;;;5081324;28;20088;-79
2021/09/26 09:56:20;;;;;;;9.73;8.70;;;22.40;99.90;;;;;;5089056;28;20504;-79
2021/09/26 09:58:52;;;;;;;10.55;9.20;;;22.40;99.90;;;;;;5074641;28;20029;-78
2021/09/26 10:01:39;;;;;;;19.15;16.95;;;22.50;99.90;;;;;;5080436;28;20466;-79
2021/09/26 10:04:12;;;;;;;14.07;11.23;;;22.60;99.90;;;;;;5081404;28;20025;-79
2021/09/26 10:06:45;;;;;;;41.58;30.52;;;22.70;99.90;;;;;;5054130;28;20099;-79
2021/09/26 10:09:21;;;;;;;10.90;9.82;;;22.70;99.90;;;;;;5080373;28;20029;-79
2021/09/26 10:11:53;;;;;;;12.13;9.55;;;22.70;99.90;;;;;;5081489;28;20036;-79
2021/09/26 10:14:21;;;;;;;12.02;9.18;;;22.80;99.90;;;;;;5084521;28;20052;-79
2021/09/26 10:16:48;;;;;;;8.90;8.13;;;22.80;99.90;;;;;;5085111;28;20084;-79
2021/09/26 10:19:14;;;;;;;10.30;9.27;;;22.70;99.90;;;;;;5086610;28;20505;-77
2021/09/26 10:21:41;;;;;;;11.02;10.13;;;22.70;99.90;;;;;;5056905;28;20060;-75
2021/09/26 10:24:08;;;;;;;9.95;8.77;;;22.60;99.90;;;;;;5075774;28;20029;-76
2021/09/26 10:26:38;;;;;;;9.23;8.35;;;22.70;99.90;;;;;;5076123;28;20073;-77
2021/09/26 10:29:06;;;;;;;9.80;8.82;;;22.70;99.90;;;;;;5075848;28;20025;-76
2021/09/26 10:31:33;;;;;;;11.40;10.30;;;22.70;99.90;;;;;;5056116;28;20029;-76
2021/09/26 10:34:01;;;;;;;10.25;9.15;;;22.80;99.90;;;;;;5069459;28;20387;-76
2021/09/26 10:36:29;;;;;;;15.23;10.75;;;23.00;99.90;;;;;;5074440;28;20029;-77
2021/09/26 10:38:57;;;;;;;14.60;10.45;;;23.10;99.90;;;;;;5074164;28;20532;-75
2021/09/26 10:41:25;;;;;;;10.05;9.05;;;23.30;99.90;;;;;;5074898;28;20533;-76
2021/09/26 10:43:51;;;;;;;12.23;9.10;;;23.20;99.90;;;;;;5066975;28;20021;-76
2021/09/26 10:46:28;;;;;;;11.32;10.05;;;23.20;99.90;;;;;;5058768;28;20013;-75
2021/09/26 10:49:10;;;;;;;15.02;13.07;;;23.50;99.90;;;;;;5067619;28;20375;-75
2021/09/26 10:52:29;;;;;;;22.45;19.45;;;23.60;99.90;;;;;;5060253;28;20548;-76
2021/09/26 10:55:18;;;;;;;11.65;10.43;;;23.80;99.90;;;;;;5048725;28;20045;-75
2021/09/26 10:57:46;;;;;;;11.05;9.27;;;23.80;99.90;;;;;;5070747;28;20025;-75
2021/09/26 11:00:35;;;;;;;13.30;9.75;;;23.80;99.90;;;;;;5060574;28;20060;-74
2021/09/26 11:03:12;;;;;;;13.43;8.10;;;23.60;99.90;;;;;;5054915;28;20041;-76
2021/09/26 11:05:48;;;;;;;11.27;8.10;;;23.60;99.90;;;;;;5067822;28;20028;-75
2021/09/26 11:08:41;;;;;;;10.52;9.40;;;23.50;99.90;;;;;;5074855;28;20382;-75
2021/09/26 11:11:08;;;;;;;12.10;8.15;;;23.50;99.90;;;;;;5057633;28;20087;-77
2021/09/26 11:13:38;;;;;;;10.25;8.73;;;23.40;99.90;;;;;;5056962;28;20052;-75
2021/09/26 11:16:09;;;;;;;10.25;8.43;;;23.40;99.90;;;;;;5042414;28;20029;-74
2021/09/26 11:18:58;;;;;;;8.60;7.00;;;23.50;99.90;;;;;;5055258;28;20458;-76
2021/09/26 11:21:39;;;;;;;13.88;8.15;;;23.50;99.90;;;;;;5056072;28;20375;-76
2021/09/26 11:24:09;;;;;;;9.20;8.07;;;23.60;99.90;;;;;;5069036;28;20028;-75
2021/09/26 11:27:07;;;;;;;11.38;6.53;;;23.70;99.90;;;;;;5064801;28;20395;-75
2021/09/26 11:29:39;;;;;;;8.90;7.70;;;23.50;99.90;;;;;;5052375;28;20372;-75
2021/09/26 11:32:10;;;;;;;8.43;7.65;;;23.60;99.90;;;;;;5061047;28;20031;-75
2021/09/26 11:34:42;;;;;;;7.05;6.40;;;23.70;99.90;;;;;;5052078;28;20047;-77
2021/09/26 11:37:11;;;;;;;9.57;6.85;;;23.80;99.90;;;;;;5072013;28;20045;-75
2021/09/26 11:39:38;;;;;;;7.13;6.20;;;23.70;99.90;;;;;;5075258;28;20032;-77
2021/09/26 11:42:26;;;;;;;6.75;5.63;;;23.60;99.90;;;;;;5073239;28;20020;-77
2021/09/26 11:44:52;;;;;;;7.47;5.63;;;23.60;99.90;;;;;;5055444;28;20013;-76
2021/09/26 11:47:18;;;;;;;9.25;6.40;;;23.70;99.90;;;;;;5060808;28;20043;-76
2021/09/26 11:49:44;;;;;;;7.72;6.10;;;23.90;99.90;;;;;;5073035;28;20028;-79
2021/09/26 11:52:11;;;;;;;7.40;6.68;;;24.00;99.90;;;;;;5068807;28;20024;-77
2021/09/26 11:54:37;;;;;;;8.80;6.40;;;23.90;99.90;;;;;;5070691;28;20403;-77
2021/09/26 11:57:03;;;;;;;10.60;6.65;;;24.00;99.90;;;;;;5054577;28;20032;-77
2021/09/26 11:59:39;;;;;;;8.18;7.00;;;23.90;99.90;;;;;;5053276;28;20047;-77
2021/09/26 12:02:16;;;;;;;6.85;6.20;;;23.70;99.90;;;;;;5073222;28;20554;-76
2021/09/26 12:04:43;;;;;;;8.57;6.70;;;23.80;99.90;;;;;;5079763;28;20027;-76
2021/09/26 12:07:09;;;;;;;8.45;6.47;;;23.90;99.90;;;;;;5081991;28;20103;-76
2021/09/26 12:09:50;;;;;;;10.60;6.85;;;23.80;99.90;;;;;;5089555;28;20367;-76
2021/09/26 12:12:20;;;;;;;12.70;6.37;;;23.70;99.90;;;;;;5071732;28;20052;-78
2021/09/26 12:14:51;;;;;;;8.63;6.22;;;23.70;99.90;;;;;;5071355;28;20072;-76
2021/09/26 12:17:24;;;;;;;;;;;23.70;99.90;;;;;;5073068;28;20147;-77
2021/09/26 12:19:55;;;;;;;13.18;6.55;;;23.70;99.90;;;;;;5045089;28;19909;-76
2021/09/26 12:22:25;;;;;;;14.55;7.05;;;23.80;99.90;;;;;;5073592;28;20397;-78
2021/09/26 12:24:55;;;;;;;19.40;6.85;;;23.80;99.90;;;;;;5056731;28;20029;-79
2021/09/26 12:27:23;;;;;;;10.85;7.32;;;24.00;99.90;;;;;;5053629;28;20036;-77
2021/09/26 12:30:00;;;;;;;11.48;6.68;;;23.90;99.90;;;;;;5054139;28;20028;-78
2021/09/26 12:32:29;;;;;;;6.85;6.10;;;24.00;99.90;;;;;;5053270;28;20070;-79
2021/09/26 12:34:58;;;;;;;10.85;7.68;;;24.10;99.90;;;;;;5070171;28;20025;-78
2021/09/26 12:37:27;;;;;;;10.90;6.32;;;24.00;99.90;;;;;;5053382;28;20021;-76
2021/09/26 12:39:57;;;;;;;8.48;7.20;;;24.00;99.90;;;;;;5058733;28;20059;-76
2021/09/26 12:42:28;;;;;;;6.22;5.78;;;24.20;99.90;;;;;;5072970;28;20056;-76
2021/09/26 12:44:54;;;;;;;8.35;7.50;;;24.10;99.90;;;;;;5073087;28;20619;-77
2021/09/26 12:47:26;;;;;;;7.90;6.22;;;24.00;99.90;;;;;;5070389;28;20056;-77
2021/09/26 12:49:53;;;;;;;8.38;5.65;;;23.90;99.90;;;;;;5072891;28;20034;-78
2021/09/26 12:52:21;;;;;;;9.30;7.28;;;23.90;99.90;;;;;;5072906;28;20078;-76
2021/09/26 12:54:54;;;;;;;6.97;6.30;;;24.00;99.90;;;;;;5073108;28;20024;-76
2021/09/26 12:57:23;;;;;;;12.88;6.28;;;24.10;99.90;;;;;;5073252;28;20031;-78